Time;durP1;ratioP1;P1;durP2;ratioP2;P2;SDS_P1;SDS_P2;PMS_P1;PMS_P2;Temp;Humidity;BMP_temperature;BMP_pressure;BME280_temperature;BME280_humidity;BME280_pressure;Samples;Min_cycle;Max_cycle;Signal;HPM_P1;HPM_P2
2023/06/14 00:01:21;;;;;;;15.13;8.07;;;13.80;1.00;;;;;;5065046;28;20041;-78
2023/06/14 00:03:50;;;;;;;11.45;8.25;;;13.80;1.00;;;;;;5068455;28;20119;-78
2023/06/14 00:06:18;;;;;;;11.05;8.32;;;13.70;15.40;;;;;;5059117;28;20083;-78
2023/06/14 00:08:45;;;;;;;11.48;9.00;;;13.60;99.90;;;;;;5067981;28;20499;-78
2023/06/14 00:11:13;;;;;;;10.77;7.78;;;13.60;1.00;;;;;;5068300;28;20099;-79
2023/06/14 00:13:41;;;;;;;12.30;8.43;;;13.60;1.00;;;;;;5059193;28;20045;-78
2023/06/14 00:16:08;;;;;;;12.40;8.48;;;13.60;23.00;;;;;;5070092;28;20076;-79
2023/06/14 00:18:36;;;;;;;12.35;8.00;;;13.60;74.00;;;;;;5047354;28;20052;-79
2023/06/14 00:21:05;;;;;;;12.25;8.27;;;13.60;1.00;;;;;;5064694;28;20127;-78
2023/06/14 00:23:32;;;;;;;15.93;8.43;;;13.60;1.00;;;;;;5068573;28;20440;-78
2023/06/14 00:26:00;;;;;;;13.35;9.02;;;13.50;1.00;;;;;;5068610;28;20060;-77
2023/06/14 00:28:27;;;;;;;10.23;9.10;;;13.40;1.00;;;;;;5067014;28;20488;-78
2023/06/14 00:30:55;;;;;;;13.20;8.82;;;13.40;1.00;;;;;;5067802;28;20060;-78
2023/06/14 00:33:22;;;;;;;16.08;9.10;;;13.40;99.90;;;;;;5048703;28;20044;-78
2023/06/14 00:35:50;;;;;;;11.75;9.18;;;13.40;1.00;;;;;;5055866;28;20072;-78
2023/06/14 00:38:18;;;;;;;10.02;8.65;;;13.40;1.00;;;;;;5067808;28;20052;-79
2023/06/14 00:40:46;;;;;;;15.48;8.38;;;13.40;1.00;;;;;;5047401;28;20098;-78
2023/06/14 00:43:14;;;;;;;13.07;8.43;;;13.40;1.00;;;;;;5050398;28;20412;-78
2023/06/14 00:45:44;;;;;;;13.32;10.30;;;13.40;99.90;;;;;;5066791;28;20043;-79
2023/06/14 00:48:12;;;;;;;18.50;9.05;;;13.40;99.90;;;;;;5045744;28;20052;-79
2023/06/14 00:50:40;;;;;;;12.15;8.25;;;13.40;99.90;;;;;;5039339;28;20067;-79
2023/06/14 00:53:08;;;;;;;13.32;9.48;;;13.30;99.90;;;;;;5067158;28;20090;-79
2023/06/14 00:55:37;;;;;;;14.43;10.27;;;13.20;99.90;;;;;;5047400;28;20052;-78
2023/06/14 00:58:04;;;;;;;14.13;9.43;;;13.20;99.90;;;;;;5065670;28;20040;-79
2023/06/14 01:00:32;;;;;;;11.80;9.00;;;13.10;1.00;;;;;;5064160;28;20037;-79
2023/06/14 01:02:59;;;;;;;12.43;8.88;;;13.10;1.00;;;;;;5062917;28;20045;-78
2023/06/14 01:05:27;;;;;;;11.20;8.90;;;13.10;99.90;;;;;;5067354;28;20044;-78
2023/06/14 01:08:16;;;;;;;12.20;9.02;;;13.20;99.90;;;;;;5055493;28;20460;-78
2023/06/14 01:10:54;;;;;;;11.90;8.77;;;13.20;1.00;;;;;;5063788;28;20114;-77
2023/06/14 01:13:43;;;;;;;13.38;9.82;;;13.20;1.00;;;;;;5068308;28;20443;-78
2023/06/14 01:16:12;;;;;;;11.52;9.05;;;13.20;1.00;;;;;;5043362;28;20045;-78
2023/06/14 01:18:41;;;;;;;15.80;8.70;;;13.20;1.00;;;;;;5042087;28;20044;-78
2023/06/14 01:21:22;;;;;;;13.80;9.07;;;13.20;99.90;;;;;;5041671;28;20061;-77
2023/06/14 01:23:52;;;;;;;12.70;8.90;;;13.20;99.90;;;;;;5006905;28;20124;-78
2023/06/14 01:26:21;;;;;;;10.98;9.43;;;13.10;10.10;;;;;;5025177;28;20062;-77
2023/06/14 01:28:49;;;;;;;14.02;9.43;;;13.10;38.50;;;;;;5023930;28;20045;-78
2023/06/14 01:31:22;;;;;;;12.27;9.20;;;13.10;99.90;;;;;;5011680;28;20140;-77
2023/06/14 01:36:26;;;;;;;12.52;8.80;;;13.20;99.90;;;;;;4996028;28;20054;-78
2023/06/14 01:38:56;;;;;;;13.05;8.20;;;13.30;1.00;;;;;;5001118;28;20116;-77
2023/06/14 01:41:24;;;;;;;13.68;8.48;;;13.30;1.00;;;;;;5003690;28;20482;-76
2023/06/14 01:43:55;;;;;;;12.27;9.57;;;13.40;99.90;;;;;;5004143;28;20097;-77
2023/06/14 01:46:23;;;;;;;10.65;8.27;;;13.40;1.00;;;;;;5020970;28;20041;-76
2023/06/14 01:48:52;;;;;;;12.65;9.07;;;13.50;1.00;;;;;;5020372;28;20069;-78
2023/06/14 01:51:21;;;;;;;12.27;7.88;;;13.50;99.90;;;;;;5008164;28;20437;-76
2023/06/14 01:53:49;;;;;;;10.30;8.23;;;13.50;1.00;;;;;;5030788;28;20139;-76
2023/06/14 01:56:18;;;;;;;9.98;8.35;;;13.60;1.00;;;;;;5030711;28;20115;-74
2023/06/14 01:58:49;;;;;;;12.95;8.38;;;13.50;1.00;;;;;;5043047;28;20050;-76
2023/06/14 02:01:18;;;;;;;9.82;8.43;;;13.50;1.00;;;;;;5035367;28;20057;-74
2023/06/14 02:03:46;;;;;;;11.73;7.90;;;13.40;1.00;;;;;;5045526;28;20140;-75
2023/06/14 02:06:17;;;;;;;17.00;8.40;;;13.40;1.00;;;;;;5052260;28;20036;-74
2023/06/14 02:08:44;;;;;;;10.70;8.40;;;13.40;1.00;;;;;;5030620;28;20058;-74
2023/06/14 02:11:12;;;;;;;13.10;7.95;;;13.40;57.30;;;;;;5023900;28;20046;-73
2023/06/14 02:13:41;;;;;;;10.68;7.80;;;13.50;1.00;;;;;;5023888;28;20042;-74
2023/06/14 02:16:08;;;;;;;14.77;8.30;;;13.50;1.00;;;;;;5051757;28;20058;-77
2023/06/14 02:18:35;;;;;;;14.50;8.25;;;13.50;1.00;;;;;;5028420;28;20111;-75
2023/06/14 02:21:03;;;;;;;12.30;8.88;;;13.50;1.00;;;;;;5042072;28;20077;-74
2023/06/14 02:23:31;;;;;;;14.50;8.60;;;13.60;99.90;;;;;;5030018;28;20050;-74
2023/06/14 02:26:00;;;;;;;11.20;7.63;;;13.60;99.90;;;;;;5021398;28;20042;-74
2023/06/14 02:28:27;;;;;;;11.45;8.50;;;13.50;99.90;;;;;;5028279;28;20583;-76
2023/06/14 02:30:56;;;;;;;16.45;8.70;;;13.60;1.00;;;;;;5003290;28;20049;-78
2023/06/14 02:33:25;;;;;;;16.98;8.00;;;13.60;99.90;;;;;;5006788;28;20117;-76
2023/06/14 02:35:53;;;;;;;11.90;7.80;;;13.50;99.90;;;;;;5007635;28;20042;-76
2023/06/14 02:38:21;;;;;;;15.13;8.68;;;13.50;99.90;;;;;;5013777;28;20042;-74
2023/06/14 02:40:49;;;;;;;11.98;8.05;;;13.50;99.90;;;;;;5004254;28;20049;-79
2023/06/14 02:43:18;;;;;;;10.45;7.05;;;13.50;1.00;;;;;;5003391;28;20048;-78
2023/06/14 02:45:45;;;;;;;8.57;7.22;;;13.50;1.00;;;;;;5021173;28;20045;-77
2023/06/14 02:48:14;;;;;;;13.43;8.55;;;13.50;1.00;;;;;;5020224;28;20044;-78
2023/06/14 02:50:43;;;;;;;10.45;8.43;;;13.50;1.00;;;;;;5018053;28;20054;-75
2023/06/14 02:53:10;;;;;;;9.95;8.30;;;13.40;1.00;;;;;;5021060;28;20046;-73
2023/06/14 02:55:39;;;;;;;12.57;8.55;;;13.30;1.00;;;;;;5003063;28;20042;-75
2023/06/14 02:58:08;;;;;;;13.00;9.00;;;13.30;99.90;;;;;;5002877;28;20420;-74
2023/06/14 03:00:36;;;;;;;16.83;9.00;;;13.30;99.90;;;;;;5004435;28;20049;-78
2023/06/14 03:03:04;;;;;;;11.80;9.05;;;13.20;1.00;;;;;;5020220;28;20050;-78
2023/06/14 03:05:34;;;;;;;11.65;7.70;;;13.20;1.00;;;;;;5018360;28;20046;-78
2023/06/14 03:08:02;;;;;;;14.95;7.55;;;13.20;1.00;;;;;;5016962;28;20412;-74
2023/06/14 03:10:30;;;;;;;10.52;7.40;;;13.30;3.00;;;;;;5034164;28;20041;-76
2023/06/14 03:12:58;;;;;;;13.27;9.00;;;13.30;1.00;;;;;;5029800;28;20532;-76
2023/06/14 03:15:27;;;;;;;13.60;7.97;;;13.30;1.00;;;;;;5021654;28;20097;-77
2023/06/14 03:17:54;;;;;;;13.13;8.23;;;13.30;1.00;;;;;;5016762;28;20050;-77
2023/06/14 03:20:29;;;;;;;12.65;8.05;;;13.30;99.90;;;;;;4992479;28;20050;-76
2023/06/14 03:22:59;;;;;;;14.60;7.90;;;13.30;1.00;;;;;;4998928;28;20051;-75
2023/06/14 03:25:29;;;;;;;12.48;8.32;;;13.40;1.00;;;;;;5005046;28;20046;-76
2023/06/14 03:27:57;;;;;;;11.30;8.40;;;13.40;1.00;;;;;;5018376;28;20140;-76
2023/06/14 03:30:25;;;;;;;11.30;7.82;;;13.40;1.00;;;;;;4998827;28;20115;-77
2023/06/14 03:32:55;;;;;;;9.93;8.38;;;13.50;1.00;;;;;;4990974;28;20042;-78
2023/06/14 03:35:27;;;;;;;11.23;8.00;;;13.50;1.00;;;;;;4984914;28;20497;-76
2023/06/14 03:37:55;;;;;;;11.70;8.68;;;13.50;1.00;;;;;;5017962;28;20136;-78
2023/06/14 03:40:26;;;;;;;13.82;8.77;;;13.60;1.00;;;;;;5001817;28;20039;-78
2023/06/14 03:42:56;;;;;;;14.18;8.65;;;13.70;99.90;;;;;;5000911;28;20041;-77
2023/06/14 03:45:24;;;;;;;10.98;8.40;;;13.80;1.00;;;;;;5016446;28;20511;-76
2023/06/14 03:47:52;;;;;;;11.52;7.68;;;13.90;1.00;;;;;;5015065;28;20041;-76
2023/06/14 03:50:20;;;;;;;10.13;7.50;;;14.00;99.90;;;;;;4997402;28;20050;-77
2023/06/14 03:52:50;;;;;;;13.13;7.43;;;14.40;95.10;;;;;;4997547;28;20061;-77
2023/06/14 03:55:18;;;;;;;10.48;7.05;;;14.70;1.00;;;;;;4982084;28;20096;-78
2023/06/14 03:57:47;;;;;;;27.77;8.95;;;15.30;1.00;;;;;;5013659;28;20061;-79
2023/06/14 04:00:19;;;;;;;10.15;5.90;;;16.10;1.00;;;;;;4999668;28;20049;-78
2023/06/14 04:02:46;;;;;;;7.18;5.63;;;16.90;1.00;;;;;;5015463;28;20128;-76
2023/06/14 04:05:15;;;;;;;8.15;5.93;;;17.40;1.00;;;;;;5016838;28;20216;-77
2023/06/14 04:07:48;;;;;;;11.13;5.63;;;17.70;1.00;;;;;;5015884;28;20042;-77
2023/06/14 04:10:17;;;;;;;8.65;6.07;;;17.60;1.00;;;;;;4999222;28;20050;-78
2023/06/14 04:12:47;;;;;;;10.18;6.35;;;17.40;1.00;;;;;;5014671;28;20053;-79
2023/06/14 04:15:15;;;;;;;9.98;6.20;;;17.20;1.00;;;;;;5001214;28;20612;-79
2023/06/14 04:17:42;;;;;;;10.98;6.32;;;17.20;1.00;;;;;;5016682;28;20046;-77
2023/06/14 04:20:10;;;;;;;11.65;6.22;;;17.00;1.00;;;;;;5017568;28;20129;-77
2023/06/14 04:22:38;;;;;;;11.40;6.30;;;16.80;1.00;;;;;;5001466;28;20592;-76
2023/06/14 04:25:08;;;;;;;10.20;6.70;;;16.70;1.00;;;;;;5016340;28;20402;-77
2023/06/14 04:27:37;;;;;;;11.93;6.25;;;16.60;1.00;;;;;;5001632;28;20092;-77
2023/06/14 04:30:08;;;;;;;12.15;6.18;;;16.70;1.00;;;;;;5016682;28;20033;-77
2023/06/14 04:32:45;;;;;;;10.88;6.20;;;17.00;1.00;;;;;;4999465;28;20680;-76
2023/06/14 04:35:14;;;;;;;10.02;6.15;;;17.20;1.00;;;;;;4985199;28;20509;-77
2023/06/14 04:37:45;;;;;;;13.35;6.68;;;17.10;1.00;;;;;;4971500;28;20395;-75
2023/06/14 04:40:13;;;;;;;9.68;6.90;;;16.90;1.00;;;;;;4972647;28;20184;-74
2023/06/14 04:42:44;;;;;;;8.32;6.40;;;16.80;1.00;;;;;;4973030;28;20054;-73
2023/06/14 04:45:15;;;;;;;12.52;6.53;;;16.80;1.00;;;;;;4991117;28;20050;-72
2023/06/14 04:47:43;;;;;;;15.80;7.13;;;16.70;1.00;;;;;;4975401;28;20062;-74
2023/06/14 04:50:13;;;;;;;12.00;6.90;;;16.60;1.00;;;;;;4994608;28;20054;-77
2023/06/14 04:52:41;;;;;;;12.13;7.13;;;16.70;1.00;;;;;;4973091;28;20061;-77
2023/06/14 04:55:11;;;;;;;9.93;7.55;;;16.80;1.00;;;;;;4972662;28;20104;-77
2023/06/14 04:57:40;;;;;;;9.70;7.45;;;16.80;1.00;;;;;;4971268;28;20161;-78
2023/06/14 05:00:11;;;;;;;25.55;10.82;;;17.00;1.00;;;;;;4987665;28;20079;-76
2023/06/14 05:02:40;;;;;;;10.38;8.30;;;17.10;1.00;;;;;;4988332;28;20523;-76
2023/06/14 05:05:08;;;;;;;12.80;8.05;;;17.20;1.00;;;;;;4972019;28;20062;-78
2023/06/14 05:07:36;;;;;;;12.80;7.55;;;17.30;1.00;;;;;;4976411;28;20073;-77
2023/06/14 05:10:05;;;;;;;12.32;6.80;;;17.40;1.00;;;;;;4975363;28;20066;-76
2023/06/14 05:12:34;;;;;;;11.35;7.88;;;17.60;1.00;;;;;;4977960;28;20034;-74
2023/06/14 05:15:01;;;;;;;10.95;7.28;;;17.80;1.00;;;;;;4975300;28;20066;-78
2023/06/14 05:17:29;;;;;;;11.85;6.97;;;18.00;1.00;;;;;;4983294;28;20058;-76
2023/06/14 05:19:58;;;;;;;11.05;7.15;;;18.10;1.00;;;;;;4992610;28;20050;-77
2023/06/14 05:22:25;;;;;;;8.27;7.22;;;18.00;1.00;;;;;;4994071;28;20398;-78
2023/06/14 05:24:52;;;;;;;10.40;7.60;;;17.90;1.00;;;;;;4994128;28;20085;-76
2023/06/14 05:27:20;;;;;;;11.52;7.97;;;17.80;1.00;;;;;;4992798;28;20458;-75
2023/06/14 05:29:47;;;;;;;11.52;7.88;;;17.60;1.00;;;;;;4995299;28;20053;-76
2023/06/14 05:32:15;;;;;;;10.90;7.45;;;17.50;1.00;;;;;;4994435;28;20054;-74
2023/06/14 05:34:46;;;;;;;13.32;7.55;;;17.40;1.00;;;;;;5001419;28;20042;-74
2023/06/14 05:37:15;;;;;;;14.20;8.40;;;17.30;1.00;;;;;;5019548;28;20049;-75
2023/06/14 05:39:43;;;;;;;12.68;8.20;;;17.30;1.00;;;;;;5019266;28;20038;-75
2023/06/14 05:42:10;;;;;;;12.77;7.95;;;17.30;1.00;;;;;;5019957;28;20042;-75
2023/06/14 05:44:38;;;;;;;12.38;7.80;;;17.40;1.00;;;;;;5019906;28;20042;-77
2023/06/14 05:47:06;;;;;;;15.55;8.02;;;17.40;1.00;;;;;;5018964;28;20061;-74
2023/06/14 05:49:33;;;;;;;11.43;7.82;;;17.40;1.00;;;;;;5019514;28;20038;-74
2023/06/14 05:52:01;;;;;;;12.60;8.63;;;17.40;1.00;;;;;;5021189;28;20600;-76
2023/06/14 05:54:30;;;;;;;11.80;8.05;;;17.50;1.00;;;;;;5020384;28;20053;-77
2023/06/14 05:57:01;;;;;;;15.52;7.88;;;17.60;1.00;;;;;;5004334;28;20033;-77
2023/06/14 05:59:28;;;;;;;17.67;8.10;;;17.80;1.00;;;;;;5019973;28;20053;-76
2023/06/14 06:01:56;;;;;;;11.20;7.50;;;18.00;1.00;;;;;;5019053;28;20077;-75
2023/06/14 06:04:24;;;;;;;12.25;8.18;;;18.20;1.00;;;;;;5021079;28;20037;-74
2023/06/14 06:06:54;;;;;;;14.30;8.40;;;18.30;1.00;;;;;;5020160;28;20155;-76
2023/06/14 06:09:21;;;;;;;9.70;7.07;;;18.50;1.00;;;;;;5011372;28;20104;-76
2023/06/14 06:11:50;;;;;;;12.98;7.20;;;18.50;1.00;;;;;;5004867;28;20060;-77
2023/06/14 06:14:18;;;;;;;11.90;6.97;;;18.50;1.00;;;;;;5013430;28;20328;-77
2023/06/14 06:16:46;;;;;;;13.80;8.05;;;18.40;1.00;;;;;;5018761;28;20084;-74
2023/06/14 06:19:13;;;;;;;10.68;7.68;;;18.50;1.00;;;;;;5004514;28;20068;-76
2023/06/14 06:21:41;;;;;;;17.88;8.43;;;18.50;1.00;;;;;;5019133;28;20050;-77
2023/06/14 06:24:08;;;;;;;15.18;8.60;;;18.50;1.00;;;;;;5021171;28;20038;-77
2023/06/14 06:26:36;;;;;;;13.13;8.85;;;18.60;1.00;;;;;;5016696;28;20076;-78
2023/06/14 06:29:05;;;;;;;15.70;9.05;;;18.70;1.00;;;;;;5021498;28;20041;-74
2023/06/14 06:31:33;;;;;;;12.57;8.00;;;18.70;1.00;;;;;;5025004;28;20068;-75
2023/06/14 06:34:00;;;;;;;20.13;12.23;;;18.70;1.00;;;;;;5022939;28;20048;-76
2023/06/14 06:36:29;;;;;;;16.25;9.35;;;18.80;1.00;;;;;;5031470;28;20052;-76
2023/06/14 06:38:56;;;;;;;13.18;9.30;;;18.90;1.00;;;;;;5023184;28;20037;-77
2023/06/14 06:41:24;;;;;;;12.65;8.82;;;19.00;1.00;;;;;;5025500;28;20038;-77
2023/06/14 06:43:51;;;;;;;16.90;8.50;;;19.10;99.90;;;;;;5034082;28;20053;-79
2023/06/14 06:46:22;;;;;;;14.40;9.75;;;19.30;99.90;;;;;;5008796;28;20106;-77
2023/06/14 06:48:50;;;;;;;12.57;8.18;;;19.50;99.90;;;;;;5029146;28;20069;-73
2023/06/14 06:51:19;;;;;;;24.20;10.93;;;19.50;99.90;;;;;;5027461;28;20128;-74
2023/06/14 06:53:55;;;;;;;14.75;9.15;;;19.70;99.90;;;;;;5029221;28;20153;-75
2023/06/14 06:56:23;;;;;;;15.00;10.23;;;19.70;99.90;;;;;;5029806;28;20046;-77
2023/06/14 06:58:51;;;;;;;24.50;14.63;;;19.80;99.90;;;;;;5022542;28;20140;-75
2023/06/14 07:01:21;;;;;;;14.68;9.73;;;19.80;99.90;;;;;;5004980;28;20050;-76
2023/06/14 07:03:48;;;;;;;18.52;8.20;;;19.80;99.90;;;;;;5026109;28;20057;-75
2023/06/14 07:06:21;;;;;;;11.13;7.95;;;19.70;99.90;;;;;;5024079;28;20045;-76
2023/06/14 07:08:49;;;;;;;13.95;7.43;;;19.70;99.90;;;;;;5002444;28;20037;-75
2023/06/14 07:11:22;;;;;;;13.43;7.05;;;19.90;99.90;;;;;;5023242;28;20053;-77
2023/06/14 07:13:50;;;;;;;16.75;7.93;;;20.10;99.90;;;;;;5019277;28;20034;-76
2023/06/14 07:16:23;;;;;;;14.68;7.03;;;20.40;99.90;;;;;;5018781;28;20132;-75
2023/06/14 07:18:51;;;;;;;13.40;8.23;;;20.60;99.90;;;;;;5018267;28;20046;-75
2023/06/14 07:21:25;;;;;;;17.63;9.90;;;20.90;99.90;;;;;;5009241;28;20124;-76
2023/06/14 07:24:12;;;;;;;10.82;6.70;;;21.00;99.90;;;;;;5009346;28;20065;-75
2023/06/14 07:26:40;;;;;;;9.15;7.10;;;20.80;99.90;;;;;;5014129;28;20045;-75
2023/06/14 07:29:08;;;;;;;13.13;7.68;;;20.70;99.90;;;;;;5016605;28;20053;-76
2023/06/14 07:31:36;;;;;;;9.88;7.22;;;20.80;99.90;;;;;;5023166;28;20496;-76
2023/06/14 07:34:04;;;;;;;13.32;9.73;;;20.80;99.90;;;;;;5019018;28;20042;-76
2023/06/14 07:36:32;;;;;;;12.00;8.35;;;20.90;99.90;;;;;;5022116;28;20498;-77
2023/06/14 07:38:59;;;;;;;11.10;8.40;;;20.90;99.90;;;;;;5027854;28;20040;-78
2023/06/14 07:41:26;;;;;;;9.70;7.60;;;20.90;99.90;;;;;;5013648;28;20042;-77
2023/06/14 07:43:55;;;;;;;15.55;7.47;;;20.70;99.90;;;;;;5019231;28;20046;-75
2023/06/14 07:46:23;;;;;;;8.55;7.15;;;20.70;99.90;;;;;;5019072;28;20038;-77
2023/06/14 07:48:52;;;;;;;10.82;7.45;;;20.60;99.90;;;;;;5018892;28;20128;-76
2023/06/14 07:51:20;;;;;;;15.18;7.88;;;20.60;99.90;;;;;;5016281;28;20124;-77
2023/06/14 07:53:50;;;;;;;15.10;9.13;;;20.60;99.90;;;;;;5018234;28;20128;-76
2023/06/14 07:56:17;;;;;;;14.43;8.52;;;20.50;99.90;;;;;;5019419;28;20060;-74
2023/06/14 07:58:46;;;;;;;13.15;8.43;;;20.50;99.90;;;;;;5018824;28;20049;-76
2023/06/14 08:01:14;;;;;;;12.82;8.75;;;20.50;99.90;;;;;;5018594;28;20112;-76
2023/06/14 08:03:41;;;;;;;12.20;7.85;;;20.60;99.90;;;;;;5019409;28;20120;-75
2023/06/14 08:06:10;;;;;;;14.77;9.02;;;20.70;99.90;;;;;;5018552;28;20049;-76
2023/06/14 08:08:37;;;;;;;12.63;7.00;;;20.80;99.90;;;;;;5018004;28;20053;-76
2023/06/14 08:11:05;;;;;;;9.45;6.57;;;20.80;99.90;;;;;;5017626;28;20073;-73
2023/06/14 08:13:32;;;;;;;13.18;7.45;;;20.90;99.90;;;;;;5015378;28;20050;-78
2023/06/14 08:16:01;;;;;;;10.73;7.53;;;21.00;99.90;;;;;;5018415;28;20072;-76
2023/06/14 08:18:30;;;;;;;12.68;7.57;;;20.90;99.90;;;;;;5015717;28;20046;-77
2023/06/14 08:20:57;;;;;;;13.23;8.32;;;20.80;99.90;;;;;;5015254;28;20034;-77
2023/06/14 08:23:26;;;;;;;13.90;7.78;;;20.80;99.90;;;;;;5014248;28;20116;-75
2023/06/14 08:25:54;;;;;;;10.88;7.70;;;20.70;99.90;;;;;;5015514;28;20053;-75
2023/06/14 08:28:22;;;;;;;18.25;10.45;;;20.70;99.90;;;;;;5018600;28;20045;-74
2023/06/14 08:30:49;;;;;;;12.18;7.30;;;20.40;99.90;;;;;;5017853;28;20042;-75
2023/06/14 08:33:17;;;;;;;19.17;9.18;;;20.20;99.90;;;;;;4998192;28;20049;-75
2023/06/14 08:35:44;;;;;;;13.95;7.50;;;20.20;99.90;;;;;;5017115;28;20091;-77
2023/06/14 08:38:12;;;;;;;11.50;7.97;;;20.20;99.90;;;;;;5016571;28;20050;-78
2023/06/14 08:40:42;;;;;;;12.13;7.13;;;20.30;99.90;;;;;;5016337;28;20045;-74
2023/06/14 08:43:10;;;;;;;12.57;8.52;;;20.40;99.90;;;;;;5001548;28;20151;-77
2023/06/14 08:45:37;;;;;;;10.93;7.18;;;20.50;99.90;;;;;;5016019;28;20045;-77
2023/06/14 08:48:06;;;;;;;9.43;7.30;;;20.60;99.90;;;;;;5017793;28;20041;-75
2023/06/14 08:50:36;;;;;;;12.90;7.82;;;20.70;99.90;;;;;;5015669;28;20124;-76
2023/06/14 08:53:04;;;;;;;12.77;8.85;;;20.80;99.90;;;;;;5014326;28;20065;-75
2023/06/14 08:55:32;;;;;;;14.02;7.30;;;20.80;99.90;;;;;;5015669;28;20045;-77
2023/06/14 08:58:03;;;;;;;10.95;7.78;;;20.80;99.90;;;;;;5015181;28;20068;-75
2023/06/14 09:00:30;;;;;;;12.60;8.52;;;20.60;99.90;;;;;;5016255;28;20045;-73
2023/06/14 09:02:58;;;;;;;12.65;7.90;;;20.80;99.90;;;;;;5009758;28;20052;-75
2023/06/14 09:05:26;;;;;;;16.50;10.55;;;21.00;99.90;;;;;;5010424;28;20049;-76
2023/06/14 09:07:54;;;;;;;10.70;8.38;;;21.10;99.90;;;;;;5016188;28;20041;-73
2023/06/14 09:10:23;;;;;;;13.77;8.73;;;21.10;99.90;;;;;;5010258;28;20137;-75
2023/06/14 09:12:50;;;;;;;14.02;7.85;;;21.20;99.90;;;;;;5017307;28;20533;-75
2023/06/14 09:15:19;;;;;;;9.57;7.88;;;21.30;99.90;;;;;;5014292;28;20093;-74
2023/06/14 09:17:46;;;;;;;12.18;6.78;;;21.40;99.90;;;;;;5016657;28;20046;-75
2023/06/14 09:20:17;;;;;;;11.55;6.57;;;21.60;99.90;;;;;;5016744;28;20053;-75
2023/06/14 09:22:44;;;;;;;9.07;6.30;;;21.80;99.90;;;;;;4998152;28;20046;-77
2023/06/14 09:25:15;;;;;;;10.25;6.25;;;22.00;99.90;;;;;;5017685;28;20135;-75
2023/06/14 09:27:42;;;;;;;12.32;7.75;;;22.10;99.90;;;;;;5017046;28;20038;-73
2023/06/14 09:30:13;;;;;;;11.50;8.60;;;22.40;99.90;;;;;;5016265;28;20136;-75
2023/06/14 09:32:42;;;;;;;12.75;6.90;;;22.50;99.90;;;;;;5019627;28;20439;-76
2023/06/14 09:35:10;;;;;;;6.28;4.43;;;22.70;99.90;;;;;;5013869;28;20042;-76
2023/06/14 09:37:38;;;;;;;6.82;4.70;;;23.10;89.90;;;;;;5015274;28;20109;-78
2023/06/14 09:40:07;;;;;;;8.32;5.80;;;23.10;28.20;;;;;;4999134;28;20129;-75
2023/06/14 09:42:35;;;;;;;6.13;3.88;;;23.00;23.80;;;;;;5015115;28;20038;-76
2023/06/14 09:45:04;;;;;;;10.02;5.47;;;23.10;1.00;;;;;;5016985;28;20104;-77
2023/06/14 09:47:31;;;;;;;8.10;4.13;;;23.10;1.00;;;;;;5014656;28;20132;-75
2023/06/14 09:50:00;;;;;;;8.38;3.78;;;23.10;1.00;;;;;;5016052;28;20038;-75
2023/06/14 09:52:29;;;;;;;10.32;4.05;;;23.10;1.00;;;;;;5019020;28;20038;-75
2023/06/14 09:54:58;;;;;;;6.05;3.90;;;22.80;1.00;;;;;;5020210;28;20041;-77
2023/06/14 09:57:33;;;;;;;5.93;3.90;;;22.70;1.00;;;;;;5018751;28;20041;-76
2023/06/14 10:00:06;;;;;;;8.88;4.15;;;22.70;1.00;;;;;;5003515;28;20123;-76
2023/06/14 10:02:47;;;;;;;8.75;4.28;;;22.50;1.00;;;;;;5020997;28;20041;-77
2023/06/14 10:05:20;;;;;;;6.03;3.58;;;22.50;1.00;;;;;;5023443;28;20081;-78
2023/06/14 10:07:53;;;;;;;6.43;3.67;;;22.60;1.00;;;;;;5015217;28;20046;-76
2023/06/14 10:10:21;;;;;;;5.60;3.92;;;22.80;1.00;;;;;;4993230;28;20053;-75
2023/06/14 10:12:49;;;;;;;14.75;7.13;;;22.80;1.00;;;;;;5021079;28;20046;-76
2023/06/14 10:15:25;;;;;;;6.25;4.32;;;22.80;1.00;;;;;;5021548;28;20125;-75
2023/06/14 10:17:58;;;;;;;7.05;3.72;;;23.00;1.00;;;;;;5018947;28;20049;-76
2023/06/14 10:20:46;;;;;;;7.03;3.63;;;23.20;1.00;;;;;;5019396;28;20138;-78
2023/06/14 10:23:19;;;;;;;6.10;3.78;;;23.50;1.00;;;;;;5019360;28;20084;-73
2023/06/14 10:25:51;;;;;;;7.75;4.18;;;23.70;1.00;;;;;;5006248;28;20046;-76
2023/06/14 10:28:22;;;;;;;5.28;4.20;;;23.90;1.00;;;;;;5027038;28;20053;-75
2023/06/14 10:31:04;;;;;;;6.88;3.92;;;23.90;1.00;;;;;;5010768;28;20058;-74
2023/06/14 10:33:32;;;;;;;5.10;3.63;;;24.10;1.00;;;;;;5027088;28;20054;-75
2023/06/14 10:36:27;;;;;;;5.45;3.40;;;24.40;1.00;;;;;;5034526;28;20045;-76
2023/06/14 10:39:08;;;;;;;4.75;3.30;;;24.40;1.00;;;;;;5034073;28;20050;-75
2023/06/14 10:41:40;;;;;;;6.35;3.80;;;24.20;1.00;;;;;;5028465;28;20045;-76
2023/06/14 10:44:50;;;;;;;5.88;3.50;;;24.10;1.00;;;;;;5017192;28;20084;-75
2023/06/14 10:47:26;;;;;;;5.57;3.63;;;24.30;1.00;;;;;;5023866;28;20377;-76
2023/06/14 10:49:56;;;;;;;6.45;4.00;;;24.70;1.00;;;;;;5030188;28;20056;-77
2023/06/14 10:52:27;;;;;;;6.85;3.85;;;24.90;1.00;;;;;;5019784;28;20046;-76
2023/06/14 10:55:12;;;;;;;5.18;3.25;;;24.90;1.00;;;;;;5018537;28;20053;-77
2023/06/14 10:57:41;;;;;;;5.65;3.30;;;24.60;1.00;;;;;;5019352;28;20049;-76
2023/06/14 11:00:13;;;;;;;5.80;3.58;;;24.20;1.00;;;;;;5019132;28;20133;-76
2023/06/14 11:03:29;;;;;;;5.80;3.60;;;24.00;1.00;;;;;;5018334;28;20041;-77
2023/06/14 11:05:58;;;;;;;6.70;3.60;;;23.90;1.00;;;;;;5019232;28;20096;-77
2023/06/14 11:09:06;;;;;;;5.43;3.47;;;24.10;1.00;;;;;;5021163;28;20060;-76
2023/06/14 11:11:34;;;;;;;6.47;3.67;;;23.70;1.00;;;;;;5012394;28;20053;-77
2023/06/14 11:14:02;;;;;;;6.60;3.65;;;23.50;1.00;;;;;;5017606;28;20041;-77
2023/06/14 11:16:33;;;;;;;8.57;5.05;;;23.50;1.00;;;;;;5018111;28;20044;-77
2023/06/14 11:19:02;;;;;;;13.90;8.63;;;23.40;1.00;;;;;;5018914;28;20433;-76
2023/06/14 11:21:32;;;;;;;5.53;3.58;;;23.70;1.00;;;;;;5015714;28;20045;-76
2023/06/14 11:24:02;;;;;;;6.15;4.00;;;23.80;1.00;;;;;;5016100;28;20064;-77
2023/06/14 11:26:30;;;;;;;5.95;3.83;;;24.00;1.00;;;;;;5019445;28;20046;-76
2023/06/14 11:28:58;;;;;;;6.75;3.63;;;23.90;1.00;;;;;;5021277;28;20034;-78
2023/06/14 11:31:26;;;;;;;5.55;4.00;;;23.90;1.00;;;;;;5024552;28;20037;-76
2023/06/14 11:33:56;;;;;;;7.68;4.18;;;24.10;1.00;;;;;;5020244;28;20112;-78
2023/06/14 11:36:24;;;;;;;8.15;4.25;;;24.30;1.00;;;;;;5021401;28;20141;-77
2023/06/14 11:38:59;;;;;;;8.93;5.13;;;24.50;1.00;;;;;;5020953;28;20046;-77
2023/06/14 11:41:34;;;;;;;10.57;3.80;;;24.70;1.00;;;;;;5008757;28;20497;-77
2023/06/14 11:44:02;;;;;;;6.63;4.38;;;25.00;1.00;;;;;;5016664;28;20049;-78
2023/06/14 11:46:30;;;;;;;9.38;4.13;;;25.20;1.00;;;;;;5017656;28;20053;-76
2023/06/14 11:48:57;;;;;;;7.28;5.00;;;25.30;1.00;;;;;;5019575;28;20064;-77
2023/06/14 11:51:25;;;;;;;4.93;4.15;;;25.20;1.00;;;;;;5018599;28;20046;-76
2023/06/14 11:53:53;;;;;;;6.65;3.78;;;25.60;1.00;;;;;;5020549;28;20060;-77
2023/06/14 11:56:21;;;;;;;6.78;3.80;;;25.60;1.00;;;;;;5015898;28;20050;-75
2023/06/14 11:58:49;;;;;;;9.27;4.15;;;25.70;1.00;;;;;;5019246;28;20061;-77
2023/06/14 12:01:18;;;;;;;5.85;3.97;;;25.70;1.00;;;;;;5022687;28;20136;-76
2023/06/14 12:03:49;;;;;;;7.78;4.20;;;25.70;1.00;;;;;;5022966;28;20072;-77
2023/06/14 12:06:18;;;;;;;7.82;4.25;;;25.30;1.00;;;;;;5034049;28;20053;-76
2023/06/14 12:08:49;;;;;;;5.25;3.63;;;25.40;1.00;;;;;;5025787;28;20497;-76
2023/06/14 12:11:17;;;;;;;7.60;4.07;;;25.20;1.00;;;;;;5023135;28;20045;-77
2023/06/14 12:13:46;;;;;;;10.93;5.53;;;25.30;1.00;;;;;;5018584;28;20049;-77
2023/06/14 12:16:15;;;;;;;9.55;4.45;;;25.30;1.00;;;;;;5018099;28;20052;-75
2023/06/14 12:18:45;;;;;;;8.20;3.75;;;25.10;1.00;;;;;;5006476;28;20037;-76
2023/06/14 12:21:12;;;;;;;9.95;4.03;;;25.10;1.00;;;;;;5026251;28;20069;-77
2023/06/14 12:23:46;;;;;;;8.05;3.92;;;25.10;1.00;;;;;;5031022;28;20056;-75
2023/06/14 12:26:15;;;;;;;6.00;3.45;;;25.20;1.00;;;;;;5030106;28;20049;-77
2023/06/14 12:28:43;;;;;;;5.00;3.60;;;25.20;1.00;;;;;;5031048;28;20033;-79
2023/06/14 12:31:12;;;;;;;7.63;4.70;;;25.00;1.00;;;;;;5024362;28;20096;-77
2023/06/14 12:33:41;;;;;;;8.45;5.47;;;25.10;1.00;;;;;;5027591;28;20037;-76
2023/06/14 12:36:10;;;;;;;8.55;4.63;;;25.10;1.00;;;;;;5030079;28;20053;-76
2023/06/14 12:38:38;;;;;;;6.25;3.70;;;25.10;1.00;;;;;;5021017;28;20136;-77
2023/06/14 12:41:05;;;;;;;5.57;4.07;;;24.60;1.00;;;;;;5003393;28;20311;-77
2023/06/14 12:43:33;;;;;;;6.32;4.63;;;24.30;1.00;;;;;;5017457;28;20489;-77
2023/06/14 12:46:01;;;;;;;8.57;4.45;;;24.10;1.00;;;;;;5016226;28;20034;-77
2023/06/14 12:48:30;;;;;;;6.32;3.42;;;24.30;1.00;;;;;;5016593;28;20055;-77
2023/06/14 12:50:59;;;;;;;5.22;3.55;;;24.30;1.00;;;;;;5018073;28;20126;-75
2023/06/14 12:53:27;;;;;;;9.05;3.92;;;24.30;1.00;;;;;;4997675;28;20057;-76
2023/06/14 12:55:54;;;;;;;5.70;3.78;;;24.20;1.00;;;;;;5016487;28;20124;-76
2023/06/14 12:58:23;;;;;;;7.15;3.78;;;24.10;1.00;;;;;;5018574;28;20101;-77
2023/06/14 13:00:51;;;;;;;6.63;4.00;;;24.10;1.00;;;;;;5017462;28;20065;-78